sensor_id;sensor_type;location;lat;lon;timestamp;temperature;humidity
3067;DHT22;1544;48.834;9.194;2022-07-10T00:02:03;18.90;57.30
3067;DHT22;1544;48.834;9.194;2022-07-10T00:04:34;18.90;57.10
3067;DHT22;1544;48.834;9.194;2022-07-10T00:07:05;18.90;57.00
3067;DHT22;1544;48.834;9.194;2022-07-10T00:09:36;18.80;56.90
3067;DHT22;1544;48.834;9.194;2022-07-10T00:12:07;18.90;56.50
3067;DHT22;1544;48.834;9.194;2022-07-10T00:14:38;18.90;55.80
3067;DHT22;1544;48.834;9.194;2022-07-10T00:17:09;18.90;55.40
3067;DHT22;1544;48.834;9.194;2022-07-10T00:19:40;18.90;55.10
3067;DHT22;1544;48.834;9.194;2022-07-10T00:22:11;18.90;55.00
3067;DHT22;1544;48.834;9.194;2022-07-10T00:24:42;18.90;54.80
3067;DHT22;1544;48.834;9.194;2022-07-10T00:27:13;18.90;55.20
3067;DHT22;1544;48.834;9.194;2022-07-10T00:29:45;18.80;54.80
3067;DHT22;1544;48.834;9.194;2022-07-10T00:32:16;18.80;55.40
3067;DHT22;1544;48.834;9.194;2022-07-10T00:34:47;18.80;55.40
3067;DHT22;1544;48.834;9.194;2022-07-10T00:37:18;18.80;55.10
3067;DHT22;1544;48.834;9.194;2022-07-10T00:39:51;18.80;55.00
3067;DHT22;1544;48.834;9.194;2022-07-10T00:42:22;18.80;55.40
3067;DHT22;1544;48.834;9.194;2022-07-10T00:44:53;18.80;54.80
3067;DHT22;1544;48.834;9.194;2022-07-10T00:47:24;18.80;54.70
3067;DHT22;1544;48.834;9.194;2022-07-10T00:49:55;18.90;54.70
3067;DHT22;1544;48.834;9.194;2022-07-10T00:52:26;18.90;54.50
3067;DHT22;1544;48.834;9.194;2022-07-10T00:54:57;18.80;54.80
3067;DHT22;1544;48.834;9.194;2022-07-10T00:57:28;18.80;55.00
3067;DHT22;1544;48.834;9.194;2022-07-10T00:59:59;18.80;55.00
3067;DHT22;1544;48.834;9.194;2022-07-10T01:02:30;18.70;55.00
3067;DHT22;1544;48.834;9.194;2022-07-10T01:05:02;18.80;55.10
3067;DHT22;1544;48.834;9.194;2022-07-10T01:07:33;18.70;55.00
3067;DHT22;1544;48.834;9.194;2022-07-10T01:10:04;18.70;55.10
3067;DHT22;1544;48.834;9.194;2022-07-10T01:12:36;18.60;55.20
3067;DHT22;1544;48.834;9.194;2022-07-10T01:15:07;18.60;55.40
3067;DHT22;1544;48.834;9.194;2022-07-10T01:17:38;18.60;55.80
3067;DHT22;1544;48.834;9.194;2022-07-10T01:20:10;18.50;55.90
3067;DHT22;1544;48.834;9.194;2022-07-10T01:22:41;18.50;56.30
3067;DHT22;1544;48.834;9.194;2022-07-10T01:25:12;18.40;56.60
3067;DHT22;1544;48.834;9.194;2022-07-10T01:27:43;18.40;57.30
3067;DHT22;1544;48.834;9.194;2022-07-10T01:30:14;18.30;56.90
3067;DHT22;1544;48.834;9.194;2022-07-10T01:32:45;18.30;57.00
3067;DHT22;1544;48.834;9.194;2022-07-10T01:35:16;18.30;57.00
3067;DHT22;1544;48.834;9.194;2022-07-10T01:37:47;18.20;57.00
3067;DHT22;1544;48.834;9.194;2022-07-10T01:40:18;18.20;56.70
3067;DHT22;1544;48.834;9.194;2022-07-10T01:42:49;18.20;56.70
3067;DHT22;1544;48.834;9.194;2022-07-10T01:45:20;18.20;56.60
3067;DHT22;1544;48.834;9.194;2022-07-10T01:47:51;18.10;57.10
3067;DHT22;1544;48.834;9.194;2022-07-10T01:50:22;18.10;57.00
3067;DHT22;1544;48.834;9.194;2022-07-10T01:52:53;18.00;57.60
3067;DHT22;1544;48.834;9.194;2022-07-10T01:55:23;17.90;57.70
3067;DHT22;1544;48.834;9.194;2022-07-10T01:57:54;17.90;58.20
3067;DHT22;1544;48.834;9.194;2022-07-10T02:00:30;17.80;58.30
3067;DHT22;1544;48.834;9.194;2022-07-10T02:03:01;17.80;59.00
3067;DHT22;1544;48.834;9.194;2022-07-10T02:05:51;17.70;59.10
3067;DHT22;1544;48.834;9.194;2022-07-10T02:08:22;17.70;59.80
3067;DHT22;1544;48.834;9.194;2022-07-10T02:10:53;17.60;60.20
3067;DHT22;1544;48.834;9.194;2022-07-10T02:13:24;17.60;60.70
3067;DHT22;1544;48.834;9.194;2022-07-10T02:15:58;17.60;61.40
3067;DHT22;1544;48.834;9.194;2022-07-10T02:18:29;17.50;62.10
3067;DHT22;1544;48.834;9.194;2022-07-10T02:21:01;17.50;63.10
3067;DHT22;1544;48.834;9.194;2022-07-10T02:23:33;17.40;63.60
3067;DHT22;1544;48.834;9.194;2022-07-10T02:26:04;17.50;64.00
3067;DHT22;1544;48.834;9.194;2022-07-10T02:28:35;17.50;64.90
3067;DHT22;1544;48.834;9.194;2022-07-10T02:31:07;17.50;64.90
3067;DHT22;1544;48.834;9.194;2022-07-10T02:33:38;17.50;65.20
3067;DHT22;1544;48.834;9.194;2022-07-10T02:36:08;17.40;66.80
3067;DHT22;1544;48.834;9.194;2022-07-10T02:38:40;17.40;67.90
3067;DHT22;1544;48.834;9.194;2022-07-10T02:41:11;17.40;68.40
3067;DHT22;1544;48.834;9.194;2022-07-10T02:43:42;17.40;68.90
3067;DHT22;1544;48.834;9.194;2022-07-10T02:46:13;17.40;69.20
3067;DHT22;1544;48.834;9.194;2022-07-10T02:48:44;17.40;69.20
3067;DHT22;1544;48.834;9.194;2022-07-10T02:51:15;17.30;70.00
3067;DHT22;1544;48.834;9.194;2022-07-10T02:53:46;17.30;70.20
3067;DHT22;1544;48.834;9.194;2022-07-10T02:56:17;17.20;70.50
3067;DHT22;1544;48.834;9.194;2022-07-10T02:58:48;17.20;70.70
3067;DHT22;1544;48.834;9.194;2022-07-10T03:01:19;17.10;71.30
3067;DHT22;1544;48.834;9.194;2022-07-10T03:03:50;17.10;71.60
3067;DHT22;1544;48.834;9.194;2022-07-10T03:06:21;17.10;72.10
3067;DHT22;1544;48.834;9.194;2022-07-10T03:08:52;17.10;72.20
3067;DHT22;1544;48.834;9.194;2022-07-10T03:11:23;17.10;72.60
3067;DHT22;1544;48.834;9.194;2022-07-10T03:13:54;17.00;72.80
3067;DHT22;1544;48.834;9.194;2022-07-10T03:16:25;17.00;72.90
3067;DHT22;1544;48.834;9.194;2022-07-10T03:18:56;17.00;73.00
3067;DHT22;1544;48.834;9.194;2022-07-10T03:21:27;16.90;73.40
3067;DHT22;1544;48.834;9.194;2022-07-10T03:23:58;16.90;73.70
3067;DHT22;1544;48.834;9.194;2022-07-10T03:26:29;16.90;73.60
3067;DHT22;1544;48.834;9.194;2022-07-10T03:29:00;16.90;73.50
3067;DHT22;1544;48.834;9.194;2022-07-10T03:31:31;16.80;73.90
3067;DHT22;1544;48.834;9.194;2022-07-10T03:34:02;16.80;73.80
3067;DHT22;1544;48.834;9.194;2022-07-10T03:36:33;16.80;73.70
3067;DHT22;1544;48.834;9.194;2022-07-10T03:39:05;16.80;73.70
3067;DHT22;1544;48.834;9.194;2022-07-10T03:41:35;16.90;73.70
3067;DHT22;1544;48.834;9.194;2022-07-10T03:44:06;16.80;73.60
3067;DHT22;1544;48.834;9.194;2022-07-10T03:46:37;16.80;73.50
3067;DHT22;1544;48.834;9.194;2022-07-10T03:49:08;16.80;73.50
3067;DHT22;1544;48.834;9.194;2022-07-10T03:51:39;16.80;73.50
3067;DHT22;1544;48.834;9.194;2022-07-10T03:54:11;16.90;73.70
3067;DHT22;1544;48.834;9.194;2022-07-10T03:56:42;16.80;73.90
3067;DHT22;1544;48.834;9.194;2022-07-10T03:59:31;16.80;73.80
3067;DHT22;1544;48.834;9.194;2022-07-10T04:02:02;16.90;73.60
3067;DHT22;1544;48.834;9.194;2022-07-10T04:04:34;16.90;73.30
3067;DHT22;1544;48.834;9.194;2022-07-10T04:07:05;16.90;73.00
3067;DHT22;1544;48.834;9.194;2022-07-10T04:09:36;16.90;73.40
3067;DHT22;1544;48.834;9.194;2022-07-10T04:12:07;16.90;73.40
3067;DHT22;1544;48.834;9.194;2022-07-10T04:14:38;16.90;73.30
3067;DHT22;1544;48.834;9.194;2022-07-10T04:17:09;17.00;73.00
3067;DHT22;1544;48.834;9.194;2022-07-10T04:19:40;17.00;72.30
3067;DHT22;1544;48.834;9.194;2022-07-10T04:22:11;17.00;72.70
3067;DHT22;1544;48.834;9.194;2022-07-10T04:24:43;17.00;72.70
3067;DHT22;1544;48.834;9.194;2022-07-10T04:27:14;17.00;72.80
3067;DHT22;1544;48.834;9.194;2022-07-10T04:29:47;17.00;72.80
3067;DHT22;1544;48.834;9.194;2022-07-10T04:32:18;17.00;72.40
3067;DHT22;1544;48.834;9.194;2022-07-10T04:34:50;17.10;71.70
3067;DHT22;1544;48.834;9.194;2022-07-10T04:37:21;17.10;71.20
3067;DHT22;1544;48.834;9.194;2022-07-10T04:39:52;17.10;71.20
3067;DHT22;1544;48.834;9.194;2022-07-10T04:42:28;17.10;70.40
3067;DHT22;1544;48.834;9.194;2022-07-10T04:44:59;17.00;70.40
3067;DHT22;1544;48.834;9.194;2022-07-10T04:47:30;17.00;70.90
3067;DHT22;1544;48.834;9.194;2022-07-10T04:50:01;16.90;70.80
3067;DHT22;1544;48.834;9.194;2022-07-10T04:52:33;16.90;70.70
3067;DHT22;1544;48.834;9.194;2022-07-10T04:55:04;16.80;71.00
3067;DHT22;1544;48.834;9.194;2022-07-10T04:57:35;16.80;71.10
3067;DHT22;1544;48.834;9.194;2022-07-10T05:00:07;16.80;71.50
3067;DHT22;1544;48.834;9.194;2022-07-10T05:02:39;16.80;71.60
3067;DHT22;1544;48.834;9.194;2022-07-10T05:05:10;16.90;70.80
3067;DHT22;1544;48.834;9.194;2022-07-10T05:07:41;16.90;70.40
3067;DHT22;1544;48.834;9.194;2022-07-10T05:10:12;16.90;70.00
3067;DHT22;1544;48.834;9.194;2022-07-10T05:12:43;17.00;69.20
3067;DHT22;1544;48.834;9.194;2022-07-10T05:15:14;17.00;69.30
3067;DHT22;1544;48.834;9.194;2022-07-10T05:17:45;17.00;66.50
3067;DHT22;1544;48.834;9.194;2022-07-10T05:20:16;17.00;64.40
3067;DHT22;1544;48.834;9.194;2022-07-10T05:22:47;17.00;64.20
3067;DHT22;1544;48.834;9.194;2022-07-10T05:25:18;16.90;63.80
3067;DHT22;1544;48.834;9.194;2022-07-10T05:27:49;16.80;64.20
3067;DHT22;1544;48.834;9.194;2022-07-10T05:30:20;16.90;63.40
3067;DHT22;1544;48.834;9.194;2022-07-10T05:32:51;16.80;63.40
3067;DHT22;1544;48.834;9.194;2022-07-10T05:35:22;16.90;63.10
3067;DHT22;1544;48.834;9.194;2022-07-10T05:37:53;16.90;62.80
3067;DHT22;1544;48.834;9.194;2022-07-10T05:40:24;16.90;61.50
3067;DHT22;1544;48.834;9.194;2022-07-10T05:42:56;16.90;60.80
3067;DHT22;1544;48.834;9.194;2022-07-10T05:45:27;16.90;61.20
3067;DHT22;1544;48.834;9.194;2022-07-10T05:47:58;16.80;59.60
3067;DHT22;1544;48.834;9.194;2022-07-10T05:50:29;16.90;59.00
3067;DHT22;1544;48.834;9.194;2022-07-10T05:53:01;16.90;55.80
3067;DHT22;1544;48.834;9.194;2022-07-10T05:55:32;17.00;53.50
3067;DHT22;1544;48.834;9.194;2022-07-10T05:58:03;17.00;51.00
3067;DHT22;1544;48.834;9.194;2022-07-10T06:00:34;17.10;50.80
3067;DHT22;1544;48.834;9.194;2022-07-10T06:03:05;17.20;51.00
3067;DHT22;1544;48.834;9.194;2022-07-10T06:05:37;17.30;48.90
3067;DHT22;1544;48.834;9.194;2022-07-10T06:08:10;17.50;48.20
3067;DHT22;1544;48.834;9.194;2022-07-10T06:10:42;17.60;48.50
3067;DHT22;1544;48.834;9.194;2022-07-10T06:13:16;17.80;48.10
3067;DHT22;1544;48.834;9.194;2022-07-10T06:15:47;18.00;46.10
3067;DHT22;1544;48.834;9.194;2022-07-10T06:18:18;18.10;44.80
3067;DHT22;1544;48.834;9.194;2022-07-10T06:20:49;18.20;44.60
3067;DHT22;1544;48.834;9.194;2022-07-10T06:23:21;18.20;44.50
3067;DHT22;1544;48.834;9.194;2022-07-10T06:25:54;18.30;44.30
3067;DHT22;1544;48.834;9.194;2022-07-10T06:28:25;18.30;44.40
3067;DHT22;1544;48.834;9.194;2022-07-10T06:30:56;18.30;43.50
3067;DHT22;1544;48.834;9.194;2022-07-10T06:33:30;18.40;43.00
3067;DHT22;1544;48.834;9.194;2022-07-10T06:36:03;18.60;42.20
3067;DHT22;1544;48.834;9.194;2022-07-10T06:38:35;18.70;40.30
3067;DHT22;1544;48.834;9.194;2022-07-10T06:41:06;18.80;40.10
3067;DHT22;1544;48.834;9.194;2022-07-10T06:43:37;18.90;39.60
3067;DHT22;1544;48.834;9.194;2022-07-10T06:46:08;19.00;39.60
3067;DHT22;1544;48.834;9.194;2022-07-10T06:48:40;19.00;39.30
3067;DHT22;1544;48.834;9.194;2022-07-10T06:51:11;19.20;38.50
3067;DHT22;1544;48.834;9.194;2022-07-10T06:53:48;19.20;38.00
3067;DHT22;1544;48.834;9.194;2022-07-10T06:56:19;19.30;38.30
3067;DHT22;1544;48.834;9.194;2022-07-10T06:58:50;19.40;38.10
3067;DHT22;1544;48.834;9.194;2022-07-10T07:01:24;19.40;38.30
3067;DHT22;1544;48.834;9.194;2022-07-10T07:03:56;19.50;37.60
3067;DHT22;1544;48.834;9.194;2022-07-10T07:06:27;19.50;37.20
3067;DHT22;1544;48.834;9.194;2022-07-10T07:08:58;19.50;37.60
3067;DHT22;1544;48.834;9.194;2022-07-10T07:11:29;19.30;36.90
3067;DHT22;1544;48.834;9.194;2022-07-10T07:14:00;19.30;36.90
3067;DHT22;1544;48.834;9.194;2022-07-10T07:16:31;19.40;36.90
3067;DHT22;1544;48.834;9.194;2022-07-10T07:19:16;19.40;37.00
3067;DHT22;1544;48.834;9.194;2022-07-10T07:21:48;19.40;37.00
3067;DHT22;1544;48.834;9.194;2022-07-10T07:24:37;19.50;35.90
3067;DHT22;1544;48.834;9.194;2022-07-10T07:27:09;19.50;35.40
3067;DHT22;1544;48.834;9.194;2022-07-10T07:29:41;19.40;35.20
3067;DHT22;1544;48.834;9.194;2022-07-10T07:32:12;19.30;35.50
3067;DHT22;1544;48.834;9.194;2022-07-10T07:34:43;19.30;35.50
3067;DHT22;1544;48.834;9.194;2022-07-10T07:37:14;19.20;35.50
3067;DHT22;1544;48.834;9.194;2022-07-10T07:39:45;19.10;35.80
3067;DHT22;1544;48.834;9.194;2022-07-10T07:42:16;19.00;35.90
3067;DHT22;1544;48.834;9.194;2022-07-10T07:44:47;18.90;36.00
3067;DHT22;1544;48.834;9.194;2022-07-10T07:47:18;19.00;36.00
3067;DHT22;1544;48.834;9.194;2022-07-10T07:49:49;19.10;35.90
3067;DHT22;1544;48.834;9.194;2022-07-10T07:52:20;19.20;35.10
3067;DHT22;1544;48.834;9.194;2022-07-10T07:54:53;19.30;35.10
3067;DHT22;1544;48.834;9.194;2022-07-10T07:57:24;19.40;35.00
3067;DHT22;1544;48.834;9.194;2022-07-10T07:59:55;19.50;35.00
3067;DHT22;1544;48.834;9.194;2022-07-10T08:02:26;19.60;34.80
3067;DHT22;1544;48.834;9.194;2022-07-10T08:04:57;19.60;35.10
3067;DHT22;1544;48.834;9.194;2022-07-10T08:07:40;19.80;35.20
3067;DHT22;1544;48.834;9.194;2022-07-10T08:10:16;20.00;35.10
3067;DHT22;1544;48.834;9.194;2022-07-10T08:12:48;20.20;34.70
3067;DHT22;1544;48.834;9.194;2022-07-10T08:15:21;20.40;34.60
3067;DHT22;1544;48.834;9.194;2022-07-10T08:17:56;20.60;34.10
3067;DHT22;1544;48.834;9.194;2022-07-10T08:20:28;20.50;33.70
3067;DHT22;1544;48.834;9.194;2022-07-10T08:22:59;20.40;33.80
3067;DHT22;1544;48.834;9.194;2022-07-10T08:25:30;20.40;33.50
3067;DHT22;1544;48.834;9.194;2022-07-10T08:28:04;20.20;33.20
3067;DHT22;1544;48.834;9.194;2022-07-10T08:30:40;20.10;33.20
3067;DHT22;1544;48.834;9.194;2022-07-10T08:33:13;20.10;33.00
3067;DHT22;1544;48.834;9.194;2022-07-10T08:35:44;20.10;32.10
3067;DHT22;1544;48.834;9.194;2022-07-10T08:38:17;20.20;32.00
3067;DHT22;1544;48.834;9.194;2022-07-10T08:40:48;20.40;31.70
3067;DHT22;1544;48.834;9.194;2022-07-10T08:43:20;20.40;31.30
3067;DHT22;1544;48.834;9.194;2022-07-10T08:45:51;20.50;31.50
3067;DHT22;1544;48.834;9.194;2022-07-10T08:48:25;20.60;31.30
3067;DHT22;1544;48.834;9.194;2022-07-10T08:51:00;20.80;31.40
3067;DHT22;1544;48.834;9.194;2022-07-10T08:53:38;20.80;31.40
3067;DHT22;1544;48.834;9.194;2022-07-10T08:56:10;20.80;31.00
3067;DHT22;1544;48.834;9.194;2022-07-10T08:58:42;20.90;31.00
3067;DHT22;1544;48.834;9.194;2022-07-10T09:01:13;21.20;30.70
3067;DHT22;1544;48.834;9.194;2022-07-10T09:03:44;21.30;30.50
3067;DHT22;1544;48.834;9.194;2022-07-10T09:06:15;21.30;30.30
3067;DHT22;1544;48.834;9.194;2022-07-10T09:09:04;21.40;30.20
3067;DHT22;1544;48.834;9.194;2022-07-10T09:11:36;21.40;30.00
3067;DHT22;1544;48.834;9.194;2022-07-10T09:14:15;21.40;30.00
3067;DHT22;1544;48.834;9.194;2022-07-10T09:17:04;21.60;30.00
3067;DHT22;1544;48.834;9.194;2022-07-10T09:19:35;21.70;29.80
3067;DHT22;1544;48.834;9.194;2022-07-10T09:22:10;21.70;29.70
3067;DHT22;1544;48.834;9.194;2022-07-10T09:24:46;21.70;29.50
3067;DHT22;1544;48.834;9.194;2022-07-10T09:27:17;21.60;29.40
3067;DHT22;1544;48.834;9.194;2022-07-10T09:29:50;21.60;29.40
3067;DHT22;1544;48.834;9.194;2022-07-10T09:32:26;21.60;29.30
3067;DHT22;1544;48.834;9.194;2022-07-10T09:34:58;21.80;29.50
3067;DHT22;1544;48.834;9.194;2022-07-10T09:37:48;21.90;29.70
3067;DHT22;1544;48.834;9.194;2022-07-10T09:40:19;21.90;29.30
3067;DHT22;1544;48.834;9.194;2022-07-10T09:42:52;21.90;29.10
3067;DHT22;1544;48.834;9.194;2022-07-10T09:45:24;21.90;29.20
3067;DHT22;1544;48.834;9.194;2022-07-10T09:47:58;21.80;29.10
3067;DHT22;1544;48.834;9.194;2022-07-10T09:50:36;21.80;29.20
3067;DHT22;1544;48.834;9.194;2022-07-10T09:53:08;21.80;29.30
3067;DHT22;1544;48.834;9.194;2022-07-10T09:55:45;21.90;29.20
3067;DHT22;1544;48.834;9.194;2022-07-10T09:58:19;22.10;29.30
3067;DHT22;1544;48.834;9.194;2022-07-10T10:00:55;22.20;29.00
3067;DHT22;1544;48.834;9.194;2022-07-10T10:03:33;22.40;29.00
3067;DHT22;1544;48.834;9.194;2022-07-10T10:08:51;22.40;29.00
3067;DHT22;1544;48.834;9.194;2022-07-10T10:12:00;22.60;28.80
3067;DHT22;1544;48.834;9.194;2022-07-10T10:14:37;22.60;28.70
3067;DHT22;1544;48.834;9.194;2022-07-10T10:17:10;22.50;28.50
3067;DHT22;1544;48.834;9.194;2022-07-10T10:19:43;22.50;28.80
3067;DHT22;1544;48.834;9.194;2022-07-10T10:22:34;22.40;28.90
3067;DHT22;1544;48.834;9.194;2022-07-10T10:25:06;22.30;28.60
3067;DHT22;1544;48.834;9.194;2022-07-10T10:27:37;22.50;28.50
3067;DHT22;1544;48.834;9.194;2022-07-10T10:30:09;22.80;28.70
3067;DHT22;1544;48.834;9.194;2022-07-10T10:32:40;22.90;28.40
3067;DHT22;1544;48.834;9.194;2022-07-10T10:35:44;22.80;28.30
3067;DHT22;1544;48.834;9.194;2022-07-10T10:38:17;22.70;28.50
3067;DHT22;1544;48.834;9.194;2022-07-10T10:40:50;22.60;28.50
3067;DHT22;1544;48.834;9.194;2022-07-10T10:43:23;22.50;28.90
3067;DHT22;1544;48.834;9.194;2022-07-10T10:45:55;22.40;28.80
3067;DHT22;1544;48.834;9.194;2022-07-10T10:48:26;22.50;29.00
3067;DHT22;1544;48.834;9.194;2022-07-10T10:51:12;22.70;28.80
3067;DHT22;1544;48.834;9.194;2022-07-10T10:53:43;22.80;28.50
3067;DHT22;1544;48.834;9.194;2022-07-10T10:58:46;22.70;28.60
3067;DHT22;1544;48.834;9.194;2022-07-10T11:01:28;22.60;28.90
3067;DHT22;1544;48.834;9.194;2022-07-10T11:06:51;22.40;29.00
3067;DHT22;1544;48.834;9.194;2022-07-10T11:09:31;22.40;28.70
3067;DHT22;1544;48.834;9.194;2022-07-10T11:12:05;22.40;28.60
3067;DHT22;1544;48.834;9.194;2022-07-10T11:14:40;22.70;28.60
3067;DHT22;1544;48.834;9.194;2022-07-10T11:17:15;22.90;28.70
3067;DHT22;1544;48.834;9.194;2022-07-10T11:19:46;23.00;28.20
3067;DHT22;1544;48.834;9.194;2022-07-10T11:22:28;22.90;28.30
3067;DHT22;1544;48.834;9.194;2022-07-10T11:25:41;22.80;28.10
3067;DHT22;1544;48.834;9.194;2022-07-10T11:28:21;22.60;28.30
3067;DHT22;1544;48.834;9.194;2022-07-10T11:30:54;22.50;28.60
3067;DHT22;1544;48.834;9.194;2022-07-10T11:33:26;22.50;28.50
3067;DHT22;1544;48.834;9.194;2022-07-10T11:35:58;22.40;28.00
3067;DHT22;1544;48.834;9.194;2022-07-10T11:38:32;22.60;27.90
3067;DHT22;1544;48.834;9.194;2022-07-10T11:41:19;23.00;27.70
3067;DHT22;1544;48.834;9.194;2022-07-10T11:43:59;23.50;27.50
3067;DHT22;1544;48.834;9.194;2022-07-10T11:46:33;23.60;27.40
3067;DHT22;1544;48.834;9.194;2022-07-10T11:49:05;23.70;27.40
3067;DHT22;1544;48.834;9.194;2022-07-10T11:51:39;23.40;27.30
3067;DHT22;1544;48.834;9.194;2022-07-10T11:54:17;23.30;27.30
3067;DHT22;1544;48.834;9.194;2022-07-10T11:56:50;23.10;27.10
3067;DHT22;1544;48.834;9.194;2022-07-10T11:59:27;22.80;27.00
3067;DHT22;1544;48.834;9.194;2022-07-10T12:02:02;22.70;26.90
3067;DHT22;1544;48.834;9.194;2022-07-10T12:04:33;22.60;27.00
3067;DHT22;1544;48.834;9.194;2022-07-10T12:07:04;22.90;27.10
3067;DHT22;1544;48.834;9.194;2022-07-10T12:09:36;23.20;27.20
3067;DHT22;1544;48.834;9.194;2022-07-10T12:12:09;23.30;26.70
3067;DHT22;1544;48.834;9.194;2022-07-10T12:14:40;23.00;26.70
3067;DHT22;1544;48.834;9.194;2022-07-10T12:17:11;22.90;27.10
3067;DHT22;1544;48.834;9.194;2022-07-10T12:19:43;22.80;27.10
3067;DHT22;1544;48.834;9.194;2022-07-10T12:22:16;22.80;26.90
3067;DHT22;1544;48.834;9.194;2022-07-10T12:24:49;23.00;27.00
3067;DHT22;1544;48.834;9.194;2022-07-10T12:27:39;23.20;26.70
3067;DHT22;1544;48.834;9.194;2022-07-10T12:30:11;23.60;26.70
3067;DHT22;1544;48.834;9.194;2022-07-10T12:32:42;24.00;26.70
3067;DHT22;1544;48.834;9.194;2022-07-10T12:35:13;24.40;26.60
3067;DHT22;1544;48.834;9.194;2022-07-10T12:37:49;24.80;26.20
3067;DHT22;1544;48.834;9.194;2022-07-10T12:40:30;25.00;26.00
3067;DHT22;1544;48.834;9.194;2022-07-10T12:43:04;25.10;25.90
3067;DHT22;1544;48.834;9.194;2022-07-10T12:45:38;24.90;25.80
3067;DHT22;1544;48.834;9.194;2022-07-10T12:48:21;24.90;25.70
3067;DHT22;1544;48.834;9.194;2022-07-10T12:50:54;25.00;25.80
3067;DHT22;1544;48.834;9.194;2022-07-10T12:53:25;25.10;25.80
3067;DHT22;1544;48.834;9.194;2022-07-10T12:55:56;24.90;25.40
3067;DHT22;1544;48.834;9.194;2022-07-10T12:58:27;24.80;25.70
3067;DHT22;1544;48.834;9.194;2022-07-10T13:00:59;24.80;25.50
3067;DHT22;1544;48.834;9.194;2022-07-10T13:03:30;24.90;25.30
3067;DHT22;1544;48.834;9.194;2022-07-10T13:06:02;25.10;24.90
3067;DHT22;1544;48.834;9.194;2022-07-10T13:08:44;25.10;25.50
3067;DHT22;1544;48.834;9.194;2022-07-10T13:11:17;24.90;25.50
3067;DHT22;1544;48.834;9.194;2022-07-10T13:13:49;24.70;25.40
3067;DHT22;1544;48.834;9.194;2022-07-10T13:16:21;24.80;25.50
3067;DHT22;1544;48.834;9.194;2022-07-10T13:18:53;24.90;25.30
3067;DHT22;1544;48.834;9.194;2022-07-10T13:21:24;24.80;25.50
3067;DHT22;1544;48.834;9.194;2022-07-10T13:23:55;25.10;25.80
3067;DHT22;1544;48.834;9.194;2022-07-10T13:26:27;25.30;25.40
3067;DHT22;1544;48.834;9.194;2022-07-10T13:29:00;25.40;25.50
3067;DHT22;1544;48.834;9.194;2022-07-10T13:31:31;25.60;25.40
3067;DHT22;1544;48.834;9.194;2022-07-10T13:34:02;25.80;25.60
3067;DHT22;1544;48.834;9.194;2022-07-10T13:36:33;25.90;25.60
3067;DHT22;1544;48.834;9.194;2022-07-10T13:39:04;25.80;25.70
3067;DHT22;1544;48.834;9.194;2022-07-10T13:41:35;26.00;25.80
3067;DHT22;1544;48.834;9.194;2022-07-10T13:44:06;26.40;25.80
3067;DHT22;1544;48.834;9.194;2022-07-10T13:46:43;26.60;24.90
3067;DHT22;1544;48.834;9.194;2022-07-10T13:49:15;26.80;24.60
3067;DHT22;1544;48.834;9.194;2022-07-10T13:51:46;27.50;24.80
3067;DHT22;1544;48.834;9.194;2022-07-10T13:54:17;27.70;24.50
3067;DHT22;1544;48.834;9.194;2022-07-10T13:56:48;27.60;24.60
3067;DHT22;1544;48.834;9.194;2022-07-10T13:59:19;27.40;24.60
3067;DHT22;1544;48.834;9.194;2022-07-10T14:01:50;27.30;24.80
3067;DHT22;1544;48.834;9.194;2022-07-10T14:04:21;27.60;24.80
3067;DHT22;1544;48.834;9.194;2022-07-10T14:06:52;27.80;24.80
3067;DHT22;1544;48.834;9.194;2022-07-10T14:09:25;28.00;24.30
3067;DHT22;1544;48.834;9.194;2022-07-10T14:11:57;28.20;24.00
3067;DHT22;1544;48.834;9.194;2022-07-10T14:14:28;28.30;23.70
3067;DHT22;1544;48.834;9.194;2022-07-10T14:16:58;28.40;23.60
3067;DHT22;1544;48.834;9.194;2022-07-10T14:19:29;28.40;23.90
3067;DHT22;1544;48.834;9.194;2022-07-10T14:22:01;28.70;23.90
3067;DHT22;1544;48.834;9.194;2022-07-10T14:24:32;28.90;23.90
3067;DHT22;1544;48.834;9.194;2022-07-10T14:27:09;29.00;23.70
3067;DHT22;1544;48.834;9.194;2022-07-10T14:29:41;29.00;23.80
3067;DHT22;1544;48.834;9.194;2022-07-10T14:32:12;29.10;23.60
3067;DHT22;1544;48.834;9.194;2022-07-10T14:34:43;29.10;23.70
3067;DHT22;1544;48.834;9.194;2022-07-10T14:37:14;29.40;23.80
3067;DHT22;1544;48.834;9.194;2022-07-10T14:39:45;29.50;23.30
3067;DHT22;1544;48.834;9.194;2022-07-10T14:42:16;29.30;23.30
3067;DHT22;1544;48.834;9.194;2022-07-10T14:44:48;29.30;23.50
3067;DHT22;1544;48.834;9.194;2022-07-10T14:47:19;29.40;23.10
3067;DHT22;1544;48.834;9.194;2022-07-10T14:49:50;29.60;23.50
3067;DHT22;1544;48.834;9.194;2022-07-10T14:52:22;29.50;23.20
3067;DHT22;1544;48.834;9.194;2022-07-10T14:54:53;29.50;23.10
3067;DHT22;1544;48.834;9.194;2022-07-10T14:57:24;29.40;23.10
3067;DHT22;1544;48.834;9.194;2022-07-10T14:59:55;29.40;23.10
3067;DHT22;1544;48.834;9.194;2022-07-10T15:02:26;29.60;23.10
3067;DHT22;1544;48.834;9.194;2022-07-10T15:04:58;29.80;23.00
3067;DHT22;1544;48.834;9.194;2022-07-10T15:07:29;30.20;23.30
3067;DHT22;1544;48.834;9.194;2022-07-10T15:10:00;30.60;22.70
3067;DHT22;1544;48.834;9.194;2022-07-10T15:12:31;30.80;22.50
3067;DHT22;1544;48.834;9.194;2022-07-10T15:15:06;30.60;22.30
3067;DHT22;1544;48.834;9.194;2022-07-10T15:17:38;30.20;22.40
3067;DHT22;1544;48.834;9.194;2022-07-10T15:20:10;30.20;22.50
3067;DHT22;1544;48.834;9.194;2022-07-10T15:22:42;30.10;22.60
3067;DHT22;1544;48.834;9.194;2022-07-10T15:25:13;30.20;22.80
3067;DHT22;1544;48.834;9.194;2022-07-10T15:27:44;30.50;22.70
3067;DHT22;1544;48.834;9.194;2022-07-10T15:30:15;30.30;22.40
3067;DHT22;1544;48.834;9.194;2022-07-10T15:32:46;30.40;22.50
3067;DHT22;1544;48.834;9.194;2022-07-10T15:35:17;30.80;22.80
3067;DHT22;1544;48.834;9.194;2022-07-10T15:37:48;31.40;23.00
3067;DHT22;1544;48.834;9.194;2022-07-10T15:40:22;32.20;22.60
3067;DHT22;1544;48.834;9.194;2022-07-10T15:42:53;32.80;22.10
3067;DHT22;1544;48.834;9.194;2022-07-10T15:45:26;33.60;22.10
3067;DHT22;1544;48.834;9.194;2022-07-10T15:47:57;34.50;21.80
3067;DHT22;1544;48.834;9.194;2022-07-10T15:50:28;35.60;21.50
3067;DHT22;1544;48.834;9.194;2022-07-10T15:53:04;37.10;21.00
3067;DHT22;1544;48.834;9.194;2022-07-10T15:55:35;38.80;20.80
3067;DHT22;1544;48.834;9.194;2022-07-10T15:58:06;40.30;20.60
3067;DHT22;1544;48.834;9.194;2022-07-10T16:00:38;40.60;20.10
3067;DHT22;1544;48.834;9.194;2022-07-10T16:03:10;39.80;20.00
3067;DHT22;1544;48.834;9.194;2022-07-10T16:05:41;38.10;20.10
3067;DHT22;1544;48.834;9.194;2022-07-10T16:08:12;36.50;20.30
3067;DHT22;1544;48.834;9.194;2022-07-10T16:10:44;35.20;20.60
3067;DHT22;1544;48.834;9.194;2022-07-10T16:13:15;34.60;20.90
3067;DHT22;1544;48.834;9.194;2022-07-10T16:15:46;33.80;21.00
3067;DHT22;1544;48.834;9.194;2022-07-10T16:18:17;33.50;21.40
3067;DHT22;1544;48.834;9.194;2022-07-10T16:20:49;34.90;21.20
3067;DHT22;1544;48.834;9.194;2022-07-10T16:23:20;36.60;21.00
3067;DHT22;1544;48.834;9.194;2022-07-10T16:25:51;36.60;20.50
3067;DHT22;1544;48.834;9.194;2022-07-10T16:28:31;35.50;20.70
3067;DHT22;1544;48.834;9.194;2022-07-10T16:31:03;34.50;20.90
3067;DHT22;1544;48.834;9.194;2022-07-10T16:33:34;34.70;21.00
3067;DHT22;1544;48.834;9.194;2022-07-10T16:36:06;35.80;20.90
3067;DHT22;1544;48.834;9.194;2022-07-10T16:38:37;37.60;20.50
3067;DHT22;1544;48.834;9.194;2022-07-10T16:41:08;38.60;20.30
3067;DHT22;1544;48.834;9.194;2022-07-10T16:43:39;39.00;20.30
3067;DHT22;1544;48.834;9.194;2022-07-10T16:46:11;40.10;20.60